Time;durP1;ratioP1;P1;durP2;ratioP2;P2;SDS_P1;SDS_P2;PMS_P1;PMS_P2;Temp;Humidity;BMP_temperature;BMP_pressure;BME280_temperature;BME280_humidity;BME280_pressure;Samples;Min_cycle;Max_cycle;Signal;HPM_P1;HPM_P2
2022/07/13 00:00:36;;;;;;;3.92;2.30;;;26.60;54.50;;;;;;5008208;28;20057;-58
2022/07/13 00:03:02;;;;;;;5.53;2.13;;;26.60;54.50;;;;;;5007383;28;20034;-58
2022/07/13 00:05:27;;;;;;;5.47;2.10;;;26.60;54.50;;;;;;5004899;28;20077;-58
2022/07/13 00:07:53;;;;;;;5.53;2.20;;;26.60;54.50;;;;;;5006062;28;20550;-58
2022/07/13 00:10:19;;;;;;;5.38;2.20;;;26.60;54.50;;;;;;5007114;28;20446;-57
2022/07/13 00:12:44;;;;;;;2.92;1.90;;;26.60;54.60;;;;;;4999467;28;20092;-58
2022/07/13 00:15:10;;;;;;;4.43;2.08;;;26.60;54.60;;;;;;5005198;28;20421;-57
2022/07/13 00:17:36;;;;;;;4.15;2.00;;;26.60;54.60;;;;;;5005283;28;20388;-57
2022/07/13 00:20:02;;;;;;;2.70;1.90;;;26.50;54.50;;;;;;5002455;28;20505;-57
2022/07/13 00:22:28;;;;;;;3.63;2.00;;;26.60;54.60;;;;;;5004667;28;20033;-58
2022/07/13 00:24:53;;;;;;;5.60;2.03;;;26.50;54.60;;;;;;5005559;28;20034;-57
2022/07/13 00:27:19;;;;;;;3.47;2.10;;;26.50;54.60;;;;;;5004024;28;20029;-58
2022/07/13 00:29:46;;;;;;;4.22;2.08;;;26.50;54.60;;;;;;5005053;28;20064;-58
2022/07/13 00:32:11;;;;;;;4.70;2.10;;;26.50;54.60;;;;;;5004825;28;20203;-58
2022/07/13 00:34:37;;;;;;;3.45;2.05;;;26.50;54.70;;;;;;5006931;28;20715;-58
2022/07/13 00:37:03;;;;;;;4.05;1.85;;;26.50;54.70;;;;;;5003985;28;20459;-58
2022/07/13 00:39:28;;;;;;;3.85;2.05;;;26.50;54.70;;;;;;5006679;28;20435;-58
2022/07/13 00:41:54;;;;;;;2.75;1.85;;;26.50;54.70;;;;;;5005626;28;20045;-57
2022/07/13 00:44:20;;;;;;;3.95;2.03;;;26.40;54.60;;;;;;5006126;28;20038;-58
2022/07/13 00:46:52;;;;;;;4.10;2.00;;;26.40;54.70;;;;;;5006136;28;20489;-58
2022/07/13 00:49:18;;;;;;;4.57;2.10;;;26.50;54.80;;;;;;5006338;28;20108;-58
2022/07/13 00:51:44;;;;;;;3.47;1.90;;;26.40;54.80;;;;;;5000634;28;20019;-58
2022/07/13 00:54:09;;;;;;;6.25;2.17;;;26.40;54.70;;;;;;5019427;28;20028;-58
2022/07/13 00:56:35;;;;;;;3.38;1.90;;;26.40;54.70;;;;;;4988265;28;20045;-58
2022/07/13 00:59:01;;;;;;;3.22;2.03;;;26.40;54.80;;;;;;5001383;28;20038;-58
2022/07/13 01:01:27;;;;;;;4.15;1.90;;;26.40;54.80;;;;;;5005567;28;20458;-58
2022/07/13 01:03:52;;;;;;;3.40;1.90;;;26.40;54.80;;;;;;5004334;28;20033;-58
2022/07/13 01:06:18;;;;;;;4.20;1.77;;;26.40;54.80;;;;;;5006955;28;20037;-58
2022/07/13 01:08:44;;;;;;;3.63;1.90;;;26.40;54.90;;;;;;5004219;28;20036;-57
2022/07/13 01:11:10;;;;;;;3.55;1.90;;;26.40;54.90;;;;;;5005145;28;20026;-58
2022/07/13 01:13:36;;;;;;;3.30;1.80;;;26.40;54.90;;;;;;5006216;28;20029;-58
2022/07/13 01:16:02;;;;;;;3.40;2.00;;;26.40;54.90;;;;;;5004997;28;20427;-57
2022/07/13 01:18:28;;;;;;;5.28;1.80;;;26.30;54.90;;;;;;5004641;28;20026;-58
2022/07/13 01:20:54;;;;;;;3.63;1.98;;;26.30;54.90;;;;;;4989480;28;20144;-57
2022/07/13 01:23:19;;;;;;;3.42;2.00;;;26.30;54.90;;;;;;5006061;28;20034;-58
2022/07/13 01:25:45;;;;;;;4.47;2.20;;;26.30;54.90;;;;;;4987222;28;20113;-57
2022/07/13 01:28:13;;;;;;;3.95;2.10;;;26.30;54.90;;;;;;5001551;28;20546;-57
2022/07/13 01:30:39;;;;;;;3.42;1.90;;;26.30;54.90;;;;;;5016217;28;20041;-58
2022/07/13 01:33:04;;;;;;;3.80;1.90;;;26.30;54.90;;;;;;5005851;28;20038;-58
2022/07/13 01:35:30;;;;;;;3.35;2.05;;;26.30;55.00;;;;;;5008607;28;20030;-58
2022/07/13 01:37:56;;;;;;;2.78;1.70;;;26.30;55.00;;;;;;5009083;28;20037;-57
2022/07/13 01:40:21;;;;;;;3.60;1.80;;;26.30;55.00;;;;;;5006532;28;20022;-58
2022/07/13 01:42:51;;;;;;;3.22;1.83;;;26.20;54.90;;;;;;5006721;28;20397;-58
2022/07/13 01:45:18;;;;;;;2.85;1.80;;;26.30;55.00;;;;;;5008703;28;20567;-58
2022/07/13 01:47:46;;;;;;;3.25;1.92;;;26.20;55.00;;;;;;5007858;28;20022;-57
2022/07/13 01:50:13;;;;;;;2.85;1.90;;;26.20;55.00;;;;;;5008876;28;20080;-58
2022/07/13 01:52:38;;;;;;;3.92;1.90;;;26.20;55.00;;;;;;5009937;28;20034;-58
2022/07/13 01:55:05;;;;;;;3.30;2.00;;;26.20;55.00;;;;;;5008730;28;20044;-57
2022/07/13 01:57:31;;;;;;;3.90;1.90;;;26.20;55.00;;;;;;5004792;28;20573;-57
2022/07/13 02:00:00;;;;;;;3.63;1.90;;;26.20;55.00;;;;;;5005955;28;20048;-57
2022/07/13 02:02:26;;;;;;;2.63;1.70;;;26.20;55.00;;;;;;5009032;28;20037;-58
2022/07/13 02:04:51;;;;;;;3.08;1.90;;;26.20;55.00;;;;;;5007166;28;20069;-58
2022/07/13 02:07:17;;;;;;;3.95;1.90;;;26.10;55.00;;;;;;4991458;28;20109;-58
2022/07/13 02:09:43;;;;;;;3.08;1.70;;;26.20;55.10;;;;;;5022755;28;20044;-58
2022/07/13 02:12:08;;;;;;;4.18;1.90;;;26.20;55.00;;;;;;5008056;28;20022;-58
2022/07/13 02:14:34;;;;;;;4.82;1.95;;;26.10;55.00;;;;;;5007590;28;20033;-58
2022/07/13 02:17:00;;;;;;;4.05;1.80;;;26.10;55.00;;;;;;5008624;28;20025;-58
2022/07/13 02:19:25;;;;;;;2.83;1.80;;;26.10;55.00;;;;;;5007783;28;20192;-57
2022/07/13 02:21:51;;;;;;;3.88;2.00;;;26.10;55.00;;;;;;5007607;28;20029;-58
2022/07/13 02:24:17;;;;;;;2.85;1.70;;;26.10;55.00;;;;;;5008733;28;20077;-58
2022/07/13 02:26:42;;;;;;;4.93;2.10;;;26.10;55.00;;;;;;5006922;28;20029;-58
2022/07/13 02:29:08;;;;;;;3.08;1.80;;;26.10;55.00;;;;;;5009099;28;20038;-58
2022/07/13 02:31:34;;;;;;;4.30;1.77;;;26.10;55.10;;;;;;5004893;28;20029;-58
2022/07/13 02:34:00;;;;;;;3.03;1.80;;;26.10;55.10;;;;;;5009281;28;20034;-58
2022/07/13 02:36:26;;;;;;;3.60;1.85;;;26.10;55.00;;;;;;5005935;28;20026;-58
2022/07/13 02:38:52;;;;;;;2.58;1.70;;;26.10;55.10;;;;;;5005831;28;20033;-58
2022/07/13 02:41:17;;;;;;;4.22;1.90;;;26.00;55.00;;;;;;5007154;28;20033;-58
2022/07/13 02:43:43;;;;;;;2.85;1.65;;;26.00;55.00;;;;;;5009139;28;20029;-58
2022/07/13 02:46:09;;;;;;;2.80;1.90;;;26.00;55.00;;;;;;5007250;28;20021;-58
2022/07/13 02:48:34;;;;;;;2.97;1.70;;;26.00;55.10;;;;;;5007045;28;20025;-58
2022/07/13 02:51:00;;;;;;;3.70;1.90;;;26.00;55.20;;;;;;5009196;28;20026;-57
2022/07/13 02:53:25;;;;;;;2.65;1.63;;;26.00;55.10;;;;;;5007111;28;20510;-58
2022/07/13 02:55:51;;;;;;;3.40;1.90;;;26.00;55.10;;;;;;5005703;28;20526;-58
2022/07/13 02:58:17;;;;;;;3.70;1.88;;;26.00;55.10;;;;;;5004802;28;20093;-57
2022/07/13 03:00:42;;;;;;;2.55;1.80;;;26.00;55.10;;;;;;5007432;28;20041;-57
2022/07/13 03:03:08;;;;;;;2.65;1.80;;;26.00;55.10;;;;;;5008693;28;20054;-58
2022/07/13 03:05:34;;;;;;;4.15;1.80;;;26.00;55.20;;;;;;5007969;28;20121;-58
2022/07/13 03:07:59;;;;;;;3.65;1.67;;;25.90;55.00;;;;;;5004289;28;20021;-58
2022/07/13 03:10:25;;;;;;;2.55;1.85;;;25.90;55.10;;;;;;5006639;28;20034;-58
2022/07/13 03:12:51;;;;;;;2.58;1.60;;;25.90;55.10;;;;;;5006757;28;20029;-58
2022/07/13 03:15:16;;;;;;;4.07;1.90;;;26.00;55.60;;;;;;5006047;28;20790;-57
2022/07/13 03:17:42;;;;;;;3.88;2.00;;;25.90;55.20;;;;;;5006176;28;20026;-58
2022/07/13 03:20:09;;;;;;;2.10;1.58;;;25.90;55.20;;;;;;5005779;28;20054;-58
2022/07/13 03:22:34;;;;;;;4.05;1.70;;;25.90;55.20;;;;;;5005792;28;20022;-58
2022/07/13 03:25:00;;;;;;;2.90;1.75;;;25.90;55.20;;;;;;5005888;28;20042;-57
2022/07/13 03:27:26;;;;;;;4.25;1.83;;;25.90;55.20;;;;;;5005490;28;20021;-58
2022/07/13 03:29:51;;;;;;;2.67;1.60;;;25.90;55.30;;;;;;5005398;28;20650;-57
2022/07/13 03:32:17;;;;;;;4.93;1.80;;;25.90;55.30;;;;;;5007115;28;20517;-57
2022/07/13 03:34:43;;;;;;;2.00;1.50;;;25.90;55.30;;;;;;5007031;28;20025;-58
2022/07/13 03:37:08;;;;;;;2.92;1.75;;;25.80;55.30;;;;;;5005004;28;20022;-58
2022/07/13 03:39:34;;;;;;;2.90;1.63;;;25.80;55.20;;;;;;5007217;28;20021;-58
2022/07/13 03:42:00;;;;;;;2.60;1.75;;;25.80;55.30;;;;;;5007014;28;20037;-58
2022/07/13 03:44:26;;;;;;;3.58;1.58;;;25.80;55.20;;;;;;5004872;28;20033;-58
2022/07/13 03:46:51;;;;;;;2.97;1.65;;;25.80;55.30;;;;;;5005610;28;20449;-58
2022/07/13 03:49:17;;;;;;;3.53;1.85;;;25.80;55.30;;;;;;5006297;28;20029;-57
2022/07/13 03:51:43;;;;;;;3.55;1.88;;;25.80;55.30;;;;;;5003757;28;20034;-57
2022/07/13 03:54:08;;;;;;;4.47;2.00;;;25.80;55.30;;;;;;5005532;28;20446;-58
2022/07/13 03:56:34;;;;;;;2.75;1.80;;;25.80;55.30;;;;;;5005121;28;20057;-58
2022/07/13 03:59:00;;;;;;;3.83;1.77;;;25.80;55.40;;;;;;5005692;28;20486;-58
2022/07/13 04:01:26;;;;;;;2.17;1.55;;;25.80;55.30;;;;;;5006589;28;20116;-58
2022/07/13 04:03:52;;;;;;;2.72;1.70;;;25.80;55.30;;;;;;5004911;28;20088;-57
2022/07/13 04:06:18;;;;;;;2.08;1.50;;;25.80;55.30;;;;;;5006320;28;20025;-57
2022/07/13 04:08:43;;;;;;;2.25;1.40;;;25.80;55.40;;;;;;5005065;28;20391;-57
2022/07/13 04:11:09;;;;;;;3.10;1.95;;;25.80;55.30;;;;;;5005909;28;20460;-57
2022/07/13 04:13:35;;;;;;;2.38;1.77;;;25.70;55.30;;;;;;5007174;28;20557;-58
2022/07/13 04:16:01;;;;;;;2.58;1.58;;;25.70;55.30;;;;;;5005150;28;20038;-58
2022/07/13 04:18:26;;;;;;;2.40;1.42;;;25.70;55.30;;;;;;5016156;28;20018;-58
2022/07/13 04:20:52;;;;;;;2.90;1.80;;;25.70;55.30;;;;;;5007097;28;20053;-58
2022/07/13 04:23:17;;;;;;;2.80;1.50;;;25.70;55.30;;;;;;5005199;28;20030;-58
2022/07/13 04:25:44;;;;;;;3.30;1.90;;;25.70;55.40;;;;;;5001617;28;20094;-57
2022/07/13 04:28:09;;;;;;;2.40;1.58;;;25.70;55.40;;;;;;5003651;28;20041;-58
2022/07/13 04:30:35;;;;;;;2.78;1.60;;;25.70;55.40;;;;;;5005520;28;20026;-58
2022/07/13 04:33:01;;;;;;;3.20;1.63;;;25.70;55.40;;;;;;5004370;28;20038;-58
2022/07/13 04:35:28;;;;;;;2.28;1.60;;;25.70;55.40;;;;;;5004862;28;20037;-58
2022/07/13 04:37:54;;;;;;;4.35;1.60;;;25.70;55.40;;;;;;5003042;28;20156;-58
2022/07/13 04:40:21;;;;;;;2.85;1.73;;;25.60;55.40;;;;;;5006185;28;20104;-58
2022/07/13 04:42:47;;;;;;;2.55;1.70;;;25.60;55.40;;;;;;5021526;28;20507;-58
2022/07/13 04:45:13;;;;;;;2.33;1.60;;;25.60;55.40;;;;;;5004706;28;20441;-58
2022/07/13 04:47:39;;;;;;;3.33;1.80;;;25.60;55.40;;;;;;5017154;28;20443;-58
2022/07/13 04:50:06;;;;;;;2.67;1.50;;;25.60;55.40;;;;;;5000407;28;20030;-58
2022/07/13 04:52:31;;;;;;;2.35;1.60;;;25.60;55.40;;;;;;5003921;28;20105;-58
2022/07/13 04:54:57;;;;;;;2.33;1.70;;;25.60;55.60;;;;;;5005278;28;20251;-58
2022/07/13 04:57:23;;;;;;;3.25;1.50;;;25.60;55.50;;;;;;5004861;28;20490;-58
2022/07/13 04:59:48;;;;;;;2.60;1.70;;;25.60;55.60;;;;;;5004724;28;20046;-58
2022/07/13 05:02:14;;;;;;;2.60;1.77;;;25.60;55.60;;;;;;5003098;28;20563;-58
2022/07/13 05:04:40;;;;;;;2.05;1.63;;;25.60;55.60;;;;;;5008218;28;20053;-58
2022/07/13 05:07:05;;;;;;;3.17;1.60;;;25.60;55.60;;;;;;5006385;28;20032;-58
2022/07/13 05:09:31;;;;;;;2.28;1.50;;;25.60;55.60;;;;;;5021951;28;20050;-58
2022/07/13 05:11:57;;;;;;;2.83;1.73;;;25.60;55.60;;;;;;5005393;28;20025;-58
2022/07/13 05:14:22;;;;;;;2.33;1.73;;;25.60;55.60;;;;;;5007613;28;20057;-58
2022/07/13 05:16:48;;;;;;;2.50;1.63;;;25.50;55.60;;;;;;5006193;28;20108;-58
2022/07/13 05:19:14;;;;;;;2.42;1.65;;;25.60;55.70;;;;;;5007936;28;20046;-59
2022/07/13 05:21:39;;;;;;;6.85;2.42;;;25.50;55.50;;;;;;5006128;28;20025;-58
2022/07/13 05:24:05;;;;;;;6.18;2.20;;;25.50;55.10;;;;;;5004955;28;20526;-58
2022/07/13 05:26:31;;;;;;;6.40;2.60;;;25.50;55.10;;;;;;5004691;28;20099;-58
2022/07/13 05:28:56;;;;;;;5.57;2.58;;;25.50;55.10;;;;;;5005098;28;20030;-58
2022/07/13 05:31:22;;;;;;;5.90;2.40;;;25.40;54.80;;;;;;5007044;28;20029;-58
2022/07/13 05:33:48;;;;;;;7.07;2.92;;;25.40;54.60;;;;;;5005641;28;20034;-58
2022/07/13 05:36:14;;;;;;;8.40;2.60;;;25.40;54.50;;;;;;5005333;28;20049;-58
2022/07/13 05:38:39;;;;;;;4.65;2.08;;;25.40;54.70;;;;;;5007834;28;20148;-58
2022/07/13 05:41:05;;;;;;;4.07;2.15;;;25.40;54.90;;;;;;5007978;28;20105;-61
2022/07/13 05:43:31;;;;;;;7.85;2.15;;;25.40;54.80;;;;;;5008317;28;20123;-58
2022/07/13 05:45:57;;;;;;;7.93;2.63;;;25.40;55.00;;;;;;5008548;28;20060;-58
2022/07/13 05:48:22;;;;;;;4.30;2.20;;;25.40;55.00;;;;;;5008860;28;20107;-58
2022/07/13 05:50:48;;;;;;;5.13;1.90;;;25.40;55.00;;;;;;5008564;28;20030;-58
2022/07/13 05:53:14;;;;;;;4.85;2.17;;;25.40;55.10;;;;;;5007478;28;20025;-58
2022/07/13 05:55:40;;;;;;;5.55;2.10;;;25.40;55.10;;;;;;5023311;28;20040;-58
2022/07/13 05:58:06;;;;;;;6.38;2.17;;;25.30;55.10;;;;;;5007047;28;20025;-58
2022/07/13 06:00:31;;;;;;;5.43;2.28;;;25.30;55.10;;;;;;5008281;28;20026;-58
2022/07/13 06:02:57;;;;;;;5.63;2.28;;;25.30;55.20;;;;;;5007637;28;20037;-58
2022/07/13 06:05:23;;;;;;;5.85;2.22;;;25.30;55.20;;;;;;5008011;28;20117;-58
2022/07/13 06:07:50;;;;;;;4.38;2.00;;;25.30;55.30;;;;;;5007944;28;20156;-58
2022/07/13 06:10:15;;;;;;;5.53;2.30;;;25.30;55.30;;;;;;5008229;28;20125;-58
2022/07/13 06:12:41;;;;;;;6.60;2.65;;;25.30;55.30;;;;;;5009418;28;20026;-58
2022/07/13 06:15:07;;;;;;;7.85;2.80;;;25.30;55.40;;;;;;5008375;28;20038;-58
2022/07/13 06:17:33;;;;;;;5.38;2.10;;;25.30;55.30;;;;;;5008890;28;20030;-58
2022/07/13 06:19:58;;;;;;;7.03;2.28;;;25.30;55.40;;;;;;5007856;28;20133;-58
2022/07/13 06:22:24;;;;;;;5.15;2.38;;;25.30;55.40;;;;;;5006813;28;20033;-58
2022/07/13 06:24:50;;;;;;;6.43;2.03;;;25.30;55.40;;;;;;5006905;28;20041;-58
2022/07/13 06:27:15;;;;;;;4.70;2.22;;;25.30;55.40;;;;;;5007948;28;20041;-58
2022/07/13 06:29:41;;;;;;;6.65;2.30;;;25.30;55.50;;;;;;5006921;28;20473;-58
2022/07/13 06:32:07;;;;;;;5.75;2.20;;;25.30;56.20;;;;;;5007093;28;20399;-58
2022/07/13 06:34:33;;;;;;;8.77;2.35;;;25.30;55.60;;;;;;5007445;28;20030;-58
2022/07/13 06:36:58;;;;;;;5.95;2.53;;;25.30;55.60;;;;;;5007172;28;20029;-58
2022/07/13 06:39:24;;;;;;;4.93;2.15;;;25.20;55.50;;;;;;5007352;28;20033;-58
2022/07/13 06:41:50;;;;;;;5.22;2.25;;;25.30;55.60;;;;;;5006900;28;20029;-58
2022/07/13 06:44:15;;;;;;;3.70;1.92;;;25.30;55.70;;;;;;5008091;28;20045;-58
2022/07/13 06:46:41;;;;;;;5.55;2.00;;;25.30;55.70;;;;;;5007857;28;20034;-58
2022/07/13 06:49:06;;;;;;;6.53;2.25;;;25.20;55.60;;;;;;5006849;28;20036;-58
2022/07/13 06:51:32;;;;;;;4.85;2.00;;;25.20;55.70;;;;;;5006936;28;20032;-58
2022/07/13 06:53:58;;;;;;;5.07;2.13;;;25.30;55.70;;;;;;5007717;28;20029;-58
2022/07/13 06:56:24;;;;;;;4.22;2.20;;;25.20;55.70;;;;;;5008114;28;20041;-58
2022/07/13 06:58:49;;;;;;;4.85;1.90;;;25.20;55.70;;;;;;5008309;28;20100;-58
2022/07/13 07:01:15;;;;;;;6.07;1.98;;;25.20;55.70;;;;;;5004978;28;20034;-58
2022/07/13 07:03:41;;;;;;;4.50;2.10;;;25.20;55.70;;;;;;5007089;28;20026;-58
2022/07/13 07:06:07;;;;;;;3.85;2.00;;;25.20;55.80;;;;;;5007596;28;20043;-58
2022/07/13 07:08:34;;;;;;;6.70;2.10;;;25.20;55.80;;;;;;5007500;28;20026;-58
2022/07/13 07:10:59;;;;;;;3.63;1.95;;;25.20;55.80;;;;;;5006489;28;20053;-58
2022/07/13 07:13:25;;;;;;;3.30;1.85;;;25.20;55.80;;;;;;5005848;28;20062;-58
2022/07/13 07:15:52;;;;;;;7.00;2.10;;;25.20;55.80;;;;;;5007233;28;20084;-58
2022/07/13 07:18:18;;;;;;;5.47;2.00;;;25.20;55.80;;;;;;5003372;28;20487;-58
2022/07/13 07:20:43;;;;;;;4.63;2.30;;;25.20;55.90;;;;;;5004631;28;20030;-58
2022/07/13 07:23:09;;;;;;;3.33;1.77;;;25.20;55.80;;;;;;5004843;28;20064;-58
2022/07/13 07:25:34;;;;;;;3.90;2.00;;;25.20;55.90;;;;;;5005937;28;20065;-58
2022/07/13 07:28:00;;;;;;;4.85;2.05;;;25.20;55.80;;;;;;5008155;28;20079;-58
2022/07/13 07:30:26;;;;;;;4.95;2.00;;;25.20;55.80;;;;;;5004943;28;20034;-58
2022/07/13 07:32:51;;;;;;;5.47;2.00;;;25.20;55.90;;;;;;5006021;28;20030;-58
2022/07/13 07:35:17;;;;;;;4.53;2.10;;;25.20;55.90;;;;;;5003058;28;20079;-58
2022/07/13 07:37:44;;;;;;;4.10;1.98;;;25.20;55.90;;;;;;5005081;28;20025;-58
2022/07/13 07:40:13;;;;;;;3.92;2.10;;;25.20;56.90;;;;;;5006482;28;20057;-58
2022/07/13 07:42:39;;;;;;;4.05;1.90;;;25.20;55.90;;;;;;5002129;28;20026;-58
2022/07/13 07:45:05;;;;;;;4.60;1.92;;;25.20;55.90;;;;;;5006430;28;20541;-58
2022/07/13 07:47:31;;;;;;;5.78;2.08;;;25.20;56.10;;;;;;5006147;28;20021;-58
2022/07/13 07:49:56;;;;;;;4.43;2.10;;;25.20;56.90;;;;;;5005257;28;20027;-58
2022/07/13 07:52:22;;;;;;;4.57;1.92;;;25.20;55.90;;;;;;5006284;28;20034;-58
2022/07/13 07:54:48;;;;;;;4.75;2.28;;;25.20;56.00;;;;;;5004234;28;20048;-58
2022/07/13 07:57:14;;;;;;;4.25;2.08;;;25.20;56.00;;;;;;5005564;28;20076;-58
2022/07/13 07:59:41;;;;;;;3.88;1.88;;;25.20;56.00;;;;;;5005310;28;20034;-58
2022/07/13 08:02:07;;;;;;;4.00;2.30;;;25.20;55.90;;;;;;5005516;28;20069;-58
2022/07/13 08:04:32;;;;;;;4.00;1.90;;;25.20;56.00;;;;;;5006008;28;20061;-58
2022/07/13 08:06:58;;;;;;;4.40;2.00;;;25.20;56.00;;;;;;5005557;28;20057;-58
2022/07/13 08:09:24;;;;;;;6.30;2.17;;;25.20;56.00;;;;;;5006753;28;20022;-58
2022/07/13 08:11:49;;;;;;;3.22;1.90;;;25.20;56.00;;;;;;5006468;28;20084;-58
2022/07/13 08:14:15;;;;;;;7.07;2.20;;;25.20;56.00;;;;;;5006627;28;20101;-58
2022/07/13 08:16:41;;;;;;;4.90;2.25;;;25.20;55.90;;;;;;5006803;28;20026;-58
2022/07/13 08:19:06;;;;;;;4.15;1.95;;;25.20;55.90;;;;;;5005279;28;20054;-58
2022/07/13 08:21:34;;;;;;;3.13;1.98;;;25.20;56.00;;;;;;5006595;28;20053;-58
2022/07/13 08:23:59;;;;;;;4.45;2.17;;;25.20;55.90;;;;;;5005590;28;20038;-58
2022/07/13 08:26:27;;;;;;;3.83;1.90;;;25.20;55.90;;;;;;5004808;28;20033;-58
2022/07/13 08:28:53;;;;;;;4.28;2.20;;;25.20;57.00;;;;;;5005227;28;20045;-58
2022/07/13 08:31:22;;;;;;;3.15;1.90;;;25.20;56.00;;;;;;5006887;28;20030;-58
2022/07/13 08:39:33;;;;;;;3.67;1.97;;;25.20;56.10;;;;;;4944775;29;20162;-58
2022/07/13 08:41:59;;;;;;;4.43;2.08;;;25.20;56.10;;;;;;4943569;28;20540;-58
2022/07/13 08:44:25;;;;;;;4.07;2.22;;;25.20;56.10;;;;;;4941494;29;20568;-58
2022/07/13 08:46:51;;;;;;;4.28;2.10;;;25.20;56.10;;;;;;4944286;29;20035;-58
2022/07/13 08:49:16;;;;;;;4.82;2.33;;;25.20;56.20;;;;;;4942609;29;20042;-58
2022/07/13 08:51:44;;;;;;;4.38;2.22;;;25.20;56.20;;;;;;4942966;29;20451;-58
2022/07/13 08:54:10;;;;;;;4.32;2.20;;;25.20;56.10;;;;;;4942456;29;20031;-58
2022/07/13 08:56:35;;;;;;;4.25;2.10;;;25.20;56.10;;;;;;4942212;28;20050;-58
2022/07/13 08:59:01;;;;;;;3.70;2.22;;;25.30;56.30;;;;;;4941423;28;20539;-58
2022/07/13 09:01:27;;;;;;;4.13;2.20;;;25.30;56.20;;;;;;4940400;28;20030;-58
2022/07/13 09:03:52;;;;;;;4.22;2.00;;;25.30;56.20;;;;;;4936063;29;20056;-58
2022/07/13 09:06:40;;;;;;;3.40;1.90;;;25.30;56.20;;;;;;4940173;29;20031;-58
2022/07/13 09:09:06;;;;;;;4.18;2.00;;;25.30;56.30;;;;;;4939965;29;20031;-58
2022/07/13 09:11:32;;;;;;;3.00;1.90;;;25.30;56.30;;;;;;4991150;28;20049;-58
2022/07/13 09:13:57;;;;;;;3.40;1.92;;;25.30;56.30;;;;;;5007013;28;20021;-58
2022/07/13 09:16:25;;;;;;;4.55;2.00;;;25.30;56.30;;;;;;5004235;28;20532;-58
2022/07/13 09:18:55;;;;;;;4.95;2.17;;;25.30;56.30;;;;;;5005713;28;20041;-58
2022/07/13 09:21:22;;;;;;;3.88;2.00;;;25.30;56.30;;;;;;5006165;28;21626;-58
2022/07/13 09:23:57;;;;;;;5.13;2.17;;;25.30;56.20;;;;;;5005245;28;20037;-58
2022/07/13 09:26:24;;;;;;;3.85;2.30;;;25.30;56.30;;;;;;5005141;28;20053;-58
2022/07/13 09:28:50;;;;;;;4.18;2.05;;;25.30;56.40;;;;;;5021474;28;20394;-58
2022/07/13 09:31:17;;;;;;;4.40;2.10;;;25.40;56.40;;;;;;5003512;28;20034;-58
2022/07/13 09:33:44;;;;;;;3.55;2.00;;;25.40;56.40;;;;;;5006844;28;20033;-58
2022/07/13 09:36:15;;;;;;;4.35;2.00;;;25.40;56.40;;;;;;5005731;28;20410;-58
2022/07/13 09:38:42;;;;;;;4.45;2.00;;;25.40;56.40;;;;;;5004781;28;20068;-58
2022/07/13 09:41:17;;;;;;;4.20;2.22;;;25.40;56.50;;;;;;5004204;28;20029;-58
2022/07/13 09:47:06;;;;;;;2.88;1.83;;;25.40;56.50;;;;;;5001346;28;20049;-58
2022/07/13 09:49:32;;;;;;;4.03;2.10;;;25.40;56.40;;;;;;5003916;28;20402;-58
2022/07/13 09:51:58;;;;;;;3.20;2.00;;;25.40;56.50;;;;;;5008608;28;20084;-58
2022/07/13 09:54:26;;;;;;;4.68;2.00;;;25.40;56.50;;;;;;5008360;28;20398;-58
2022/07/13 09:56:52;;;;;;;3.17;1.90;;;25.40;56.40;;;;;;5006651;28;20037;-58
2022/07/13 09:59:18;;;;;;;4.13;1.92;;;25.40;56.40;;;;;;5007993;28;20018;-58
2022/07/13 10:01:45;;;;;;;4.93;2.25;;;25.40;56.50;;;;;;5023461;28;20473;-58
2022/07/13 10:04:11;;;;;;;4.80;2.10;;;25.50;56.50;;;;;;5021664;28;20040;-58
2022/07/13 10:06:37;;;;;;;3.13;1.92;;;25.50;56.70;;;;;;5008246;28;20496;-58
2022/07/13 10:09:02;;;;;;;4.13;2.25;;;25.50;56.50;;;;;;5006691;28;20030;-58
2022/07/13 10:11:28;;;;;;;5.30;2.25;;;25.40;56.50;;;;;;5007738;28;20036;-58
2022/07/13 10:13:54;;;;;;;3.70;2.13;;;25.50;56.60;;;;;;5005031;28;20034;-58
2022/07/13 10:16:20;;;;;;;3.38;1.90;;;25.50;56.50;;;;;;5001118;28;20109;-58
2022/07/13 10:18:45;;;;;;;3.88;2.13;;;25.50;56.60;;;;;;5007842;28;20049;-58
2022/07/13 10:21:16;;;;;;;2.88;1.90;;;25.50;56.60;;;;;;5004451;28;20030;-58
2022/07/13 10:23:41;;;;;;;2.60;2.00;;;25.50;56.60;;;;;;5005544;28;20026;-58
2022/07/13 10:26:24;;;;;;;4.13;2.00;;;25.50;56.60;;;;;;5007577;28;20088;-58
2022/07/13 10:29:03;;;;;;;2.88;1.98;;;25.50;56.70;;;;;;5006735;28;20491;-58
2022/07/13 10:31:29;;;;;;;4.57;2.10;;;25.60;56.70;;;;;;5005386;28;20416;-58
2022/07/13 10:33:55;;;;;;;5.22;2.20;;;25.60;56.70;;;;;;5006987;28;20037;-58
2022/07/13 10:36:52;;;;;;;3.10;1.90;;;25.60;56.70;;;;;;5005605;28;20022;-58
2022/07/13 10:39:24;;;;;;;3.05;1.90;;;25.60;56.70;;;;;;5008109;28;20104;-58
2022/07/13 10:42:06;;;;;;;4.38;2.20;;;25.60;56.70;;;;;;5006317;28;20030;-58
2022/07/13 10:44:40;;;;;;;3.05;2.13;;;25.60;56.70;;;;;;5006278;28;20046;-58
2022/07/13 10:47:06;;;;;;;3.88;2.17;;;25.60;56.70;;;;;;5008110;28;20034;-58
2022/07/13 10:49:32;;;;;;;3.38;2.08;;;25.60;56.70;;;;;;5007267;28;20052;-57
2022/07/13 10:52:20;;;;;;;3.53;2.05;;;25.60;56.70;;;;;;5007720;28;20026;-58
2022/07/13 10:55:03;;;;;;;2.95;1.80;;;25.60;56.70;;;;;;5006447;28;20029;-58
2022/07/13 10:57:30;;;;;;;2.92;2.10;;;25.60;56.70;;;;;;5006570;28;20032;-58
2022/07/13 11:00:28;;;;;;;4.15;2.10;;;25.60;56.70;;;;;;5006301;28;20042;-58
2022/07/13 11:03:05;;;;;;;2.47;1.80;;;25.60;56.70;;;;;;5008716;28;20017;-58
2022/07/13 11:05:35;;;;;;;4.07;1.90;;;25.60;56.70;;;;;;5005551;28;20037;-58
2022/07/13 11:08:14;;;;;;;3.38;2.00;;;25.70;56.80;;;;;;5005275;28;20049;-58
2022/07/13 11:10:40;;;;;;;3.58;2.00;;;25.60;56.70;;;;;;5005988;28;20033;-58
2022/07/13 11:13:13;;;;;;;2.17;1.80;;;25.70;56.90;;;;;;5021405;28;20160;-58
2022/07/13 11:15:44;;;;;;;3.50;2.28;;;25.60;56.70;;;;;;5001148;28;20026;-58
2022/07/13 11:18:22;;;;;;;3.17;1.95;;;25.70;56.90;;;;;;5006227;28;20022;-58
2022/07/13 11:20:57;;;;;;;3.30;1.90;;;25.70;56.90;;;;;;5003508;28;20038;-58
2022/07/13 11:26:34;;;;;;;3.83;2.05;;;25.70;56.90;;;;;;5017176;28;20053;-58
2022/07/13 11:29:22;;;;;;;3.10;1.67;;;25.70;56.90;;;;;;5004884;28;20443;-58
2022/07/13 11:31:57;;;;;;;3.83;2.10;;;25.70;56.80;;;;;;5004532;28;20065;-58
2022/07/13 11:34:23;;;;;;;4.57;2.00;;;25.70;56.90;;;;;;5007066;28;20022;-58
2022/07/13 11:36:49;;;;;;;3.15;1.90;;;25.70;56.90;;;;;;5006543;28;20022;-58
2022/07/13 11:39:24;;;;;;;4.40;2.20;;;25.80;56.90;;;;;;5006754;28;20029;-58
2022/07/13 11:41:53;;;;;;;4.13;2.00;;;25.70;56.90;;;;;;5004236;28;20022;-58
2022/07/13 11:44:22;;;;;;;4.93;2.15;;;25.70;56.90;;;;;;5004311;28;20384;-58
2022/07/13 11:46:47;;;;;;;3.00;1.80;;;25.80;57.00;;;;;;5005713;28;20117;-58
2022/07/13 11:49:13;;;;;;;3.17;2.00;;;25.80;56.90;;;;;;5001770;28;20105;-58
2022/07/13 11:51:41;;;;;;;2.63;1.60;;;25.80;57.00;;;;;;5006674;28;20045;-58
2022/07/13 11:54:11;;;;;;;2.65;1.90;;;25.80;57.00;;;;;;5022335;28;20045;-58
2022/07/13 11:56:58;;;;;;;2.50;1.80;;;25.80;57.00;;;;;;5004917;28;20065;-58
2022/07/13 11:59:42;;;;;;;3.20;2.00;;;25.80;57.00;;;;;;5004277;28;20091;-58
2022/07/13 12:02:08;;;;;;;2.78;1.80;;;25.80;57.00;;;;;;5006162;28;20092;-58
2022/07/13 12:04:44;;;;;;;3.03;1.92;;;25.80;57.00;;;;;;5004043;28;20045;-58
2022/07/13 12:07:16;;;;;;;2.50;1.67;;;25.80;57.00;;;;;;5006541;28;20029;-58
2022/07/13 12:09:56;;;;;;;3.47;2.00;;;25.80;57.00;;;;;;5005166;28;20092;-58
2022/07/13 12:12:35;;;;;;;2.30;1.88;;;25.80;57.00;;;;;;5004493;28;20028;-58
2022/07/13 12:15:00;;;;;;;2.95;1.80;;;25.80;56.90;;;;;;5002439;28;20177;-58
2022/07/13 12:17:27;;;;;;;2.90;1.90;;;25.80;56.90;;;;;;5006547;28;20030;-58
2022/07/13 12:19:53;;;;;;;4.43;1.65;;;25.80;56.90;;;;;;5005094;28;20042;-58
2022/07/13 12:22:22;;;;;;;3.13;1.90;;;25.90;56.90;;;;;;5002941;28;20076;-58
2022/07/13 12:24:48;;;;;;;3.70;1.80;;;25.90;57.00;;;;;;5006525;28;20034;-58
2022/07/13 12:27:26;;;;;;;3.45;1.92;;;25.90;57.00;;;;;;5007659;28;20030;-58
2022/07/13 12:30:09;;;;;;;3.22;1.80;;;25.90;56.90;;;;;;5005153;28;20087;-58
2022/07/13 12:32:55;;;;;;;2.50;1.90;;;25.90;56.90;;;;;;5017451;28;20026;-58
2022/07/13 12:35:20;;;;;;;3.15;1.95;;;25.90;56.80;;;;;;5004765;28;20619;-58
2022/07/13 12:37:50;;;;;;;3.33;1.70;;;25.90;56.80;;;;;;5005518;28;20106;-58
2022/07/13 12:40:44;;;;;;;2.78;1.80;;;25.90;56.80;;;;;;5005994;28;20038;-58
2022/07/13 12:43:20;;;;;;;3.83;2.00;;;25.90;56.80;;;;;;5007160;28;20018;-58
2022/07/13 12:45:56;;;;;;;3.17;1.65;;;25.90;56.70;;;;;;5004822;28;20034;-58
2022/07/13 12:48:23;;;;;;;3.03;1.75;;;26.00;56.80;;;;;;5003602;28;20425;-58
2022/07/13 12:50:59;;;;;;;2.80;1.80;;;25.90;56.70;;;;;;5005421;28;20026;-58
2022/07/13 12:53:26;;;;;;;3.28;1.90;;;26.00;56.80;;;;;;5003848;28;20442;-58
2022/07/13 12:55:55;;;;;;;3.22;1.90;;;26.00;56.70;;;;;;5004396;28;20518;-58
2022/07/13 12:58:43;;;;;;;3.33;2.08;;;26.00;56.70;;;;;;5005548;28;20031;-58
2022/07/13 13:01:09;;;;;;;3.15;1.70;;;26.00;56.60;;;;;;5006939;28;20040;-58